createdAt,value
2023-02-05T00:02:09.538Z,76.98
2023-02-05T00:04:36.882Z,76.78
2023-02-05T00:07:04.524Z,77.01
2023-02-05T00:09:31.314Z,76.73
2023-02-05T00:11:58.998Z,77.07
2023-02-05T00:14:26.168Z,77.11
2023-02-05T00:16:54.232Z,76.92
2023-02-05T00:19:21.512Z,77.10
2023-02-05T00:21:49.837Z,77.03
2023-02-05T00:24:17.065Z,76.88
2023-02-05T00:26:44.700Z,76.43
2023-02-05T00:29:11.899Z,76.25
2023-02-05T00:31:39.990Z,76.79
2023-02-05T00:34:08.254Z,76.55
2023-02-05T00:36:35.049Z,76.92
2023-02-05T00:39:02.162Z,76.82
2023-02-05T00:41:29.027Z,76.74
2023-02-05T00:43:55.786Z,76.66
2023-02-05T00:46:22.669Z,76.37
2023-02-05T00:48:49.788Z,76.47
2023-02-05T00:51:16.643Z,76.39
2023-02-05T00:53:43.473Z,76.02
2023-02-05T00:56:10.615Z,75.78
2023-02-05T00:58:37.589Z,75.70
2023-02-05T01:01:04.980Z,75.56
2023-02-05T01:03:32.767Z,76.01
2023-02-05T01:05:59.855Z,75.50
2023-02-05T01:08:26.657Z,75.66
2023-02-05T01:10:54.364Z,75.76
2023-02-05T01:13:21.707Z,75.89
2023-02-05T01:15:49.563Z,75.98
2023-02-05T01:18:17.072Z,75.83
2023-02-05T01:20:44.596Z,76.14
2023-02-05T01:23:12.477Z,75.90
2023-02-05T01:25:39.325Z,75.92
2023-02-05T01:28:07.378Z,75.51
2023-02-05T01:30:34.330Z,75.11
2023-02-05T01:33:01.772Z,74.99
2023-02-05T01:35:28.958Z,74.86
2023-02-05T01:37:55.805Z,74.42
2023-02-05T01:40:23.181Z,74.38
2023-02-05T01:42:50.010Z,74.50
2023-02-05T01:45:51.832Z,74.37
2023-02-05T01:48:22.851Z,74.25
2023-02-05T01:50:52.365Z,74.14
2023-02-05T01:53:24.213Z,74.12
2023-02-05T01:55:56.590Z,74.16
2023-02-05T01:58:23.860Z,73.77
2023-02-05T02:00:50.953Z,73.97
2023-02-05T02:03:18.297Z,73.92
2023-02-05T02:05:45.033Z,73.94
2023-02-05T02:08:14.720Z,74.07
2023-02-05T02:10:44.756Z,73.71
2023-02-05T02:13:13.334Z,73.67
2023-02-05T02:15:41.363Z,73.71
2023-02-05T02:18:26.762Z,73.44
2023-02-05T02:21:06.948Z,73.53
2023-02-05T02:23:49.126Z,73.50
2023-02-05T02:26:44.435Z,73.52
2023-02-05T02:29:18.898Z,73.52
2023-02-05T02:31:52.084Z,73.32
2023-02-05T02:34:24.005Z,73.36
2023-02-05T02:36:58.166Z,73.35
2023-02-05T02:39:30.811Z,73.34
2023-02-05T02:42:03.941Z,73.47
2023-02-05T02:44:35.511Z,73.05
2023-02-05T02:47:06.985Z,73.20
2023-02-05T02:49:40.481Z,73.32
2023-02-05T02:52:11.100Z,73.30
2023-02-05T02:54:41.095Z,73.29
2023-02-05T02:57:11.385Z,73.44
2023-02-05T02:59:42.118Z,72.90
2023-02-05T03:02:12.448Z,73.43
2023-02-05T03:04:42.303Z,72.79
2023-02-05T03:07:13.663Z,72.88
2023-02-05T03:09:52.146Z,73.25
2023-02-05T03:12:20.219Z,73.53
2023-02-05T03:14:47.409Z,72.86
2023-02-05T03:17:18.708Z,72.79
2023-02-05T03:19:46.646Z,73.06
2023-02-05T03:22:13.429Z,73.18
2023-02-05T03:24:40.683Z,72.76
2023-02-05T03:27:08.063Z,72.88
2023-02-05T03:29:39.280Z,72.90
2023-02-05T03:32:23.008Z,73.33
2023-02-05T03:35:06.108Z,73.14
2023-02-05T03:37:42.510Z,73.50
2023-02-05T03:40:20.088Z,73.41
2023-02-05T03:42:54.652Z,73.70
2023-02-05T03:45:34.540Z,73.63
2023-02-05T03:48:17.853Z,73.55
2023-02-05T03:50:50.261Z,73.62
2023-02-05T03:53:24.801Z,73.57
2023-02-05T03:55:56.801Z,73.58
2023-02-05T03:58:28.660Z,73.45
2023-02-05T04:00:55.712Z,73.54
2023-02-05T04:03:23.382Z,73.05
2023-02-05T04:05:50.978Z,73.14
2023-02-05T04:08:18.837Z,73.23
2023-02-05T04:10:47.704Z,73.39
2023-02-05T04:13:14.594Z,72.92
2023-02-05T04:15:41.574Z,73.22
2023-02-05T04:18:09.424Z,73.39
2023-02-05T04:20:36.419Z,73.07
2023-02-05T04:23:03.886Z,73.25
2023-02-05T04:25:31.418Z,73.08
2023-02-05T04:28:00.912Z,73.24
2023-02-05T04:30:28.402Z,73.19
2023-02-05T04:32:55.407Z,73.17
2023-02-05T04:35:22.297Z,73.19
2023-02-05T04:37:49.588Z,73.65
2023-02-05T04:40:17.672Z,73.19
2023-02-05T04:42:45.416Z,72.96
2023-02-05T04:45:12.652Z,73.15
2023-02-05T04:47:39.805Z,73.00
2023-02-05T04:50:07.236Z,73.31
2023-02-05T04:52:34.025Z,73.04
2023-02-05T04:55:00.896Z,73.32
2023-02-05T04:57:27.889Z,73.03
2023-02-05T04:59:54.736Z,73.23
2023-02-05T05:02:23.182Z,73.12
2023-02-05T05:04:50.232Z,73.29
2023-02-05T05:07:17.036Z,73.34
2023-02-05T05:09:43.797Z,73.44
2023-02-05T05:12:10.940Z,72.95
2023-02-05T05:14:38.799Z,72.84
2023-02-05T05:17:05.847Z,73.12
2023-02-05T05:19:32.762Z,73.47
2023-02-05T05:21:59.821Z,73.33
2023-02-05T05:24:26.629Z,73.21
2023-02-05T05:26:53.436Z,73.14
2023-02-05T05:29:20.227Z,73.67
2023-02-05T05:31:47.160Z,73.17
2023-02-05T05:34:14.054Z,73.32
2023-02-05T05:36:43.701Z,73.15
2023-02-05T05:39:28.592Z,73.25
2023-02-05T05:42:13.092Z,73.40
2023-02-05T05:44:40.209Z,73.18
2023-02-05T05:47:07.222Z,73.27
2023-02-05T05:49:34.075Z,73.61
2023-02-05T05:52:01.059Z,73.49
2023-02-05T05:54:27.985Z,73.34
2023-02-05T05:56:54.714Z,73.26
2023-02-05T05:59:21.492Z,72.95
2023-02-05T06:01:48.297Z,73.27
2023-02-05T06:04:15.107Z,73.29
2023-02-05T06:06:42.647Z,73.16
2023-02-05T06:09:09.441Z,73.24
2023-02-05T06:11:36.348Z,73.24
2023-02-05T06:14:03.129Z,73.23
2023-02-05T06:16:29.946Z,72.99
2023-02-05T06:18:58.001Z,73.34
2023-02-05T06:21:25.123Z,73.17
2023-02-05T06:23:51.884Z,73.32
2023-02-05T06:26:18.772Z,73.45
2023-02-05T06:28:45.552Z,73.50
2023-02-05T06:31:12.320Z,73.29
2023-02-05T06:33:39.184Z,73.77
2023-02-05T06:36:06.921Z,73.38
2023-02-05T06:38:33.696Z,73.58
2023-02-05T06:41:00.675Z,73.79
2023-02-05T06:43:27.698Z,73.39
2023-02-05T06:45:55.698Z,73.65
2023-02-05T06:48:22.546Z,73.55
2023-02-05T06:50:49.514Z,73.55
2023-02-05T06:53:16.282Z,73.67
2023-02-05T06:55:43.252Z,73.84
2023-02-05T06:58:10.004Z,73.76
2023-02-05T07:00:37.217Z,73.42
2023-02-05T07:03:04.277Z,73.67
2023-02-05T07:05:31.536Z,73.36
2023-02-05T07:07:59.866Z,73.60
2023-02-05T07:10:26.803Z,73.43
2023-02-05T07:12:53.587Z,73.61
2023-02-05T07:15:20.784Z,73.30
2023-02-05T07:17:47.603Z,73.44
2023-02-05T07:20:16.776Z,73.31
2023-02-05T07:22:43.732Z,73.03
2023-02-05T07:25:11.137Z,73.21
2023-02-05T07:27:37.904Z,72.76
2023-02-05T07:30:05.275Z,73.04
2023-02-05T07:32:32.065Z,72.96
2023-02-05T07:34:59.188Z,72.88
2023-02-05T07:37:26.236Z,72.95
2023-02-05T07:39:53.388Z,72.70
2023-02-05T07:42:20.529Z,72.61
2023-02-05T07:44:49.942Z,72.38
2023-02-05T07:47:16.712Z,72.67
2023-02-05T07:49:43.835Z,72.45
2023-02-05T07:52:10.768Z,72.26
2023-02-05T07:54:37.546Z,72.15
2023-02-05T07:57:07.189Z,71.94
2023-02-05T07:59:33.959Z,71.26
2023-02-05T08:02:00.808Z,71.34
2023-02-05T08:04:27.874Z,71.55
2023-02-05T08:06:54.880Z,70.98
2023-02-05T08:09:21.872Z,70.99
2023-02-05T08:11:49.047Z,71.14
2023-02-05T08:14:15.965Z,70.91
2023-02-05T08:16:42.956Z,70.66
2023-02-05T08:19:14.618Z,70.42
2023-02-05T08:21:41.480Z,70.42
2023-02-05T08:24:08.729Z,70.49
2023-02-05T08:26:36.058Z,70.12
2023-02-05T08:29:03.172Z,70.25
2023-02-05T08:31:30.098Z,70.50
2023-02-05T08:34:00.093Z,70.15
2023-02-05T08:36:27.304Z,70.16
2023-02-05T08:38:54.172Z,70.49
2023-02-05T08:41:21.186Z,70.05
2023-02-05T08:43:50.002Z,70.02
2023-02-05T08:46:19.387Z,69.70
2023-02-05T08:48:46.703Z,69.76
2023-02-05T08:51:14.736Z,69.78
2023-02-05T08:53:41.734Z,69.68
2023-02-05T08:56:10.665Z,70.00
2023-02-05T08:58:37.946Z,70.08
2023-02-05T09:01:06.621Z,69.99
2023-02-05T09:03:33.897Z,70.15
2023-02-05T09:06:01.648Z,70.32
2023-02-05T09:08:31.114Z,70.10
2023-02-05T09:10:58.357Z,69.70
2023-02-05T09:13:25.244Z,69.61
2023-02-05T09:15:52.145Z,69.38
2023-02-05T09:18:19.153Z,69.27
2023-02-05T09:20:47.596Z,69.19
2023-02-05T09:23:15.912Z,68.64
2023-02-05T09:25:43.613Z,68.34
2023-02-05T09:28:12.480Z,68.26
2023-02-05T09:30:40.159Z,68.32
2023-02-05T09:33:07.299Z,67.81
2023-02-05T09:35:36.031Z,67.67
2023-02-05T09:38:03.460Z,67.38
2023-02-05T09:40:35.506Z,67.47
2023-02-05T09:43:09.669Z,66.75
2023-02-05T09:45:46.475Z,66.94
2023-02-05T09:48:31.903Z,66.72
2023-02-05T09:51:00.358Z,66.56
2023-02-05T09:53:35.132Z,66.02
2023-02-05T09:56:05.463Z,66.38
2023-02-05T09:58:37.849Z,66.46
2023-02-05T10:01:08.555Z,66.30
2023-02-05T10:03:44.401Z,66.21
2023-02-05T10:06:24.102Z,66.27
2023-02-05T10:08:59.032Z,66.17
2023-02-05T10:11:34.007Z,66.54
2023-02-05T10:14:12.246Z,66.53
2023-02-05T10:16:56.152Z,66.83
2023-02-05T10:19:41.133Z,66.80
2023-02-05T10:22:18.642Z,66.98
2023-02-05T10:25:18.123Z,66.64
2023-02-05T10:27:54.099Z,67.00
2023-02-05T10:30:29.496Z,67.06
2023-02-05T10:33:01.687Z,67.10
2023-02-05T10:35:44.446Z,67.11
2023-02-05T10:38:17.928Z,67.12
2023-02-05T10:40:46.715Z,66.78
2023-02-05T10:43:23.133Z,66.35
2023-02-05T10:45:50.884Z,66.44
2023-02-05T10:48:38.250Z,66.30
2023-02-05T10:51:08.151Z,65.92
2023-02-05T10:53:36.789Z,66.06
2023-02-05T10:56:05.844Z,65.82
2023-02-05T10:58:40.029Z,66.09
2023-02-05T11:01:08.136Z,65.61
2023-02-05T11:03:35.849Z,65.54
2023-02-05T11:06:03.363Z,65.30
2023-02-05T11:08:39.393Z,65.32
2023-02-05T11:11:07.896Z,65.51
2023-02-05T11:13:37.341Z,65.62
2023-02-05T11:16:09.186Z,65.70
2023-02-05T11:18:40.857Z,65.68
2023-02-05T11:21:10.360Z,65.79
2023-02-05T11:23:40.249Z,65.52
2023-02-05T11:26:18.292Z,65.57
2023-02-05T11:28:45.644Z,65.39
2023-02-05T11:31:28.316Z,65.41
2023-02-05T11:34:13.252Z,65.22
2023-02-05T11:36:49.696Z,65.13
2023-02-05T11:39:29.219Z,65.14
2023-02-05T11:41:58.738Z,64.89
2023-02-05T11:44:30.424Z,65.12
2023-02-05T11:47:00.600Z,65.17
2023-02-05T11:49:32.424Z,65.37
2023-02-05T11:52:01.804Z,65.50
2023-02-05T11:54:32.541Z,65.46
2023-02-05T11:57:08.660Z,65.62
2023-02-05T11:59:36.637Z,65.52
2023-02-05T12:02:32.205Z,65.16
2023-02-05T12:05:04.217Z,65.22
2023-02-05T12:07:36.351Z,65.44
2023-02-05T12:10:03.513Z,65.01
2023-02-05T12:12:36.587Z,65.15
2023-02-05T12:15:12.152Z,64.85
2023-02-05T12:17:43.894Z,64.94
2023-02-05T12:20:21.649Z,64.82
2023-02-05T12:23:28.726Z,64.38
2023-02-05T12:26:18.698Z,64.29
2023-02-05T12:28:55.491Z,63.80
2023-02-05T12:31:31.060Z,63.77
2023-02-05T12:34:18.974Z,63.55
2023-02-05T12:36:58.397Z,63.68
2023-02-05T12:39:38.438Z,63.58
2023-02-05T12:42:16.330Z,63.61
2023-02-05T12:44:57.289Z,63.84
2023-02-05T12:47:41.700Z,63.48
2023-02-05T12:50:24.254Z,63.66
2023-02-05T12:53:06.264Z,63.57
2023-02-05T12:55:49.262Z,63.83
2023-02-05T12:58:20.287Z,62.52
2023-02-05T13:00:52.967Z,62.78
2023-02-05T13:03:29.112Z,63.31
2023-02-05T13:06:01.741Z,63.45
2023-02-05T13:08:42.863Z,63.21
2023-02-05T13:11:13.781Z,62.95
2023-02-05T13:13:48.158Z,62.98
2023-02-05T13:16:18.321Z,63.03
2023-02-05T13:18:49.056Z,62.85
2023-02-05T13:21:37.037Z,62.90
2023-02-05T13:24:31.890Z,62.58
2023-02-05T13:27:28.734Z,62.44
2023-02-05T13:29:56.546Z,62.00
2023-02-05T13:32:31.204Z,61.84
2023-02-05T13:34:59.505Z,61.73
2023-02-05T13:37:52.944Z,61.03
2023-02-05T13:40:37.308Z,61.64
2023-02-05T13:43:37.042Z,61.48
2023-02-05T13:46:19.260Z,61.63
2023-02-05T13:49:16.074Z,61.61
2023-02-05T13:51:48.975Z,61.80
2023-02-05T13:54:54.745Z,61.86
2023-02-05T13:58:01.128Z,61.86
2023-02-05T14:00:29.174Z,61.94
2023-02-05T14:03:05.770Z,61.91
2023-02-05T14:05:33.805Z,61.61
2023-02-05T14:08:03.305Z,61.93
2023-02-05T14:10:32.182Z,62.24
2023-02-05T14:13:13.196Z,62.32
2023-02-05T14:15:42.814Z,62.14
2023-02-05T14:18:12.882Z,62.23
2023-02-05T14:20:45.696Z,62.54
2023-02-05T14:23:38.013Z,62.55
2023-02-05T14:26:13.755Z,62.43
2023-02-05T14:28:47.710Z,62.42
2023-02-05T14:31:50.050Z,62.21
2023-02-05T14:34:48.689Z,62.68
2023-02-05T14:37:42.398Z,62.34
2023-02-05T14:40:25.232Z,62.50
2023-02-05T14:42:57.095Z,62.55
2023-02-05T14:45:30.011Z,62.68
2023-02-05T14:47:58.833Z,62.71
2023-02-05T14:50:29.541Z,63.01
2023-02-05T14:52:59.612Z,62.90
2023-02-05T14:55:32.748Z,62.64
2023-02-05T14:58:04.369Z,62.53
2023-02-05T15:00:36.353Z,62.33
2023-02-05T15:03:35.944Z,62.44
2023-02-05T15:06:09.740Z,62.09
2023-02-05T15:08:58.968Z,62.23
2023-02-05T15:11:35.400Z,62.27
2023-02-05T15:14:37.949Z,62.15
2023-02-05T15:17:42.552Z,62.25
2023-02-05T15:20:21.480Z,62.04
2023-02-05T15:22:52.328Z,62.44
2023-02-05T15:25:31.542Z,62.60
2023-02-05T15:28:02.328Z,62.59
2023-02-05T15:30:31.543Z,62.62
2023-02-05T15:33:03.434Z,62.94
2023-02-05T15:35:34.629Z,62.87
2023-02-05T15:38:11.307Z,62.93
2023-02-05T15:40:39.702Z,62.62
2023-02-05T15:43:21.274Z,62.95
2023-02-05T15:45:49.171Z,63.18
2023-02-05T15:48:23.793Z,63.14
2023-02-05T15:50:54.951Z,63.56
2023-02-05T15:53:33.025Z,63.60
2023-02-05T15:56:01.260Z,63.57
2023-02-05T15:58:30.537Z,63.26
2023-02-05T16:00:58.264Z,63.44
2023-02-05T16:03:32.582Z,63.60
2023-02-05T16:05:59.602Z,63.52
2023-02-05T16:08:28.342Z,63.29
2023-02-05T16:10:58.233Z,63.43
2023-02-05T16:13:26.564Z,63.43
2023-02-05T16:15:59.763Z,63.73
2023-02-05T16:18:38.638Z,63.50
2023-02-05T16:21:09.779Z,63.49
2023-02-05T16:23:41.194Z,63.32
2023-02-05T16:26:16.380Z,63.64
2023-02-05T16:28:47.721Z,63.44
2023-02-05T16:31:20.602Z,63.61
2023-02-05T16:33:52.013Z,63.48
2023-02-05T16:36:22.809Z,63.46
2023-02-05T16:38:55.369Z,63.45
2023-02-05T16:41:26.961Z,63.70
2023-02-05T16:43:55.528Z,63.49
2023-02-05T16:46:32.461Z,63.64
2023-02-05T16:49:01.720Z,63.24
2023-02-05T16:51:49.645Z,63.30
2023-02-05T16:54:31.861Z,63.44
2023-02-05T16:57:04.398Z,63.38
2023-02-05T16:59:35.821Z,63.33
2023-02-05T17:02:03.531Z,63.43
2023-02-05T17:04:34.855Z,63.32
2023-02-05T17:07:04.559Z,63.49
2023-02-05T17:09:37.251Z,63.56
2023-02-05T17:12:36.496Z,63.59
2023-02-05T17:15:06.034Z,63.36
2023-02-05T17:17:33.558Z,63.56
2023-02-05T17:20:19.116Z,63.27
2023-02-05T17:23:12.639Z,63.32
2023-02-05T17:25:42.257Z,63.51
2023-02-05T17:28:12.521Z,63.65
2023-02-05T17:30:41.370Z,63.79
2023-02-05T17:33:11.368Z,64.15
2023-02-05T17:35:38.238Z,64.06
2023-02-05T17:38:05.053Z,64.34
2023-02-05T17:40:32.616Z,64.19
2023-02-05T17:42:59.640Z,64.12
2023-02-05T17:45:29.135Z,64.17
2023-02-05T17:47:55.917Z,64.71
2023-02-05T17:50:22.883Z,64.93
2023-02-05T17:52:50.078Z,64.98
2023-02-05T17:55:18.654Z,64.95
2023-02-05T17:57:46.511Z,64.94
2023-02-05T18:00:19.110Z,65.11
2023-02-05T18:02:46.460Z,65.23
2023-02-05T18:05:13.814Z,65.62
2023-02-05T18:07:43.482Z,65.83
2023-02-05T18:10:16.446Z,66.12
2023-02-05T18:12:43.506Z,65.94
2023-02-05T18:15:13.619Z,66.20
2023-02-05T18:17:41.879Z,65.79
2023-02-05T18:20:09.911Z,66.18
2023-02-05T18:22:36.842Z,65.96
2023-02-05T18:25:03.870Z,65.78
2023-02-05T18:27:31.514Z,65.95
2023-02-05T18:29:58.685Z,66.12
2023-02-05T18:32:25.539Z,66.10
2023-02-05T18:34:53.102Z,66.28
2023-02-05T18:37:20.230Z,66.03
2023-02-05T18:39:48.133Z,66.22
2023-02-05T18:42:15.434Z,66.28
2023-02-05T18:44:42.353Z,66.55
2023-02-05T18:47:10.997Z,66.35
2023-02-05T18:49:38.121Z,66.85
2023-02-05T18:52:06.342Z,67.10
2023-02-05T18:54:33.374Z,66.97
2023-02-05T18:57:00.406Z,67.45
2023-02-05T18:59:27.540Z,67.49
2023-02-05T19:01:54.843Z,67.90
2023-02-05T19:04:22.010Z,67.95
2023-02-05T19:06:53.577Z,68.20
2023-02-05T19:09:21.655Z,68.35
2023-02-05T19:11:48.914Z,68.59
2023-02-05T19:14:18.591Z,68.51
2023-02-05T19:16:47.335Z,68.21
2023-02-05T19:19:16.367Z,68.48
2023-02-05T19:21:44.960Z,68.60
2023-02-05T19:24:12.809Z,68.76
2023-02-05T19:26:43.525Z,68.51
2023-02-05T19:29:14.356Z,68.92
2023-02-05T19:31:41.868Z,69.09
2023-02-05T19:34:11.277Z,69.03
2023-02-05T19:36:39.233Z,69.36
2023-02-05T19:39:07.807Z,69.37
2023-02-05T19:41:36.993Z,69.32
2023-02-05T19:44:06.286Z,69.51
2023-02-05T19:46:35.697Z,69.67
2023-02-05T19:49:06.175Z,69.90
2023-02-05T19:51:33.224Z,69.81
2023-02-05T19:54:03.205Z,70.02
2023-02-05T19:56:30.646Z,69.92
2023-02-05T19:58:58.408Z,70.11
2023-02-05T20:01:26.810Z,70.33
2023-02-05T20:03:55.088Z,70.33
2023-02-05T20:06:24.350Z,70.65
2023-02-05T20:08:51.860Z,70.62
2023-02-05T20:11:19.099Z,70.98
2023-02-05T20:13:47.076Z,70.87
2023-02-05T20:16:16.580Z,70.92
2023-02-05T20:18:44.627Z,70.86
2023-02-05T20:21:14.243Z,71.02
2023-02-05T20:23:41.761Z,71.24
2023-02-05T20:26:10.528Z,71.39
2023-02-05T20:28:59.999Z,71.38
2023-02-05T20:31:34.408Z,71.29
2023-02-05T20:34:01.677Z,71.52
2023-02-05T20:36:28.732Z,71.79
2023-02-05T20:38:59.031Z,71.58
2023-02-05T20:41:26.293Z,71.68
2023-02-05T20:43:53.119Z,71.79
2023-02-05T20:46:20.459Z,72.04
2023-02-05T20:48:48.699Z,71.98
2023-02-05T20:51:19.805Z,72.19
2023-02-05T20:53:47.845Z,72.34
2023-02-05T20:56:17.298Z,72.11
2023-02-05T20:58:44.665Z,72.22
2023-02-05T21:01:13.391Z,72.46
2023-02-05T21:03:43.422Z,72.62
2023-02-05T21:06:10.947Z,72.87
2023-02-05T21:08:40.829Z,72.78
2023-02-05T21:11:08.027Z,72.73
2023-02-05T21:13:35.362Z,72.95
2023-02-05T21:16:04.798Z,72.95
2023-02-05T21:18:32.932Z,73.17
2023-02-05T21:21:08.501Z,73.41
2023-02-05T21:23:35.711Z,73.16
2023-02-05T21:26:05.874Z,73.55
2023-02-05T21:28:33.350Z,74.16
2023-02-05T21:31:08.582Z,74.38
2023-02-05T21:33:35.958Z,74.16
2023-02-05T21:36:07.809Z,73.95
2023-02-05T21:38:37.403Z,73.77
2023-02-05T21:41:08.881Z,73.46
2023-02-05T21:43:35.754Z,73.57
2023-02-05T21:46:05.010Z,73.74
2023-02-05T21:48:32.098Z,73.58
2023-02-05T21:51:00.145Z,73.48
2023-02-05T21:53:26.969Z,73.62
2023-02-05T21:55:54.513Z,73.64
2023-02-05T21:58:21.636Z,73.96
2023-02-05T22:00:48.644Z,74.00
2023-02-05T22:03:15.555Z,74.04
2023-02-05T22:05:42.416Z,73.92
2023-02-05T22:08:11.895Z,74.46
2023-02-05T22:10:38.942Z,74.47
2023-02-05T22:13:06.010Z,74.74
2023-02-05T22:15:33.242Z,74.59
2023-02-05T22:18:00.207Z,74.80
2023-02-05T22:20:27.028Z,74.74
2023-02-05T22:22:54.132Z,74.91
2023-02-05T22:25:21.416Z,75.00
2023-02-05T22:27:48.988Z,75.01
2023-02-05T22:30:16.559Z,75.19
2023-02-05T22:32:43.425Z,75.27
2023-02-05T22:35:10.801Z,75.35
2023-02-05T22:37:37.591Z,75.30
2023-02-05T22:40:04.688Z,75.49
2023-02-05T22:42:33.537Z,75.42
2023-02-05T22:45:00.668Z,75.50
2023-02-05T22:47:27.626Z,75.49
2023-02-05T22:49:54.528Z,75.69
2023-02-05T22:52:21.536Z,75.87
2023-02-05T22:54:48.290Z,76.01
2023-02-05T22:57:15.148Z,76.13
2023-02-05T22:59:42.072Z,76.44
2023-02-05T23:02:08.963Z,75.92
2023-02-05T23:04:35.513Z,76.20
2023-02-05T23:07:02.392Z,76.48
2023-02-05T23:09:29.275Z,76.43
2023-02-05T23:11:56.709Z,76.73
2023-02-05T23:14:23.905Z,76.59
2023-02-05T23:16:50.836Z,76.63
2023-02-05T23:19:22.337Z,76.51
2023-02-05T23:21:50.177Z,76.46
2023-02-05T23:24:17.699Z,76.35
2023-02-05T23:26:46.596Z,76.81
2023-02-05T23:29:15.624Z,76.49
2023-02-05T23:31:42.871Z,76.42
2023-02-05T23:34:09.933Z,76.56
2023-02-05T23:36:37.751Z,76.84
2023-02-05T23:39:06.313Z,76.78
2023-02-05T23:41:40.447Z,76.85
2023-02-05T23:44:12.904Z,76.75
2023-02-05T23:46:41.091Z,76.93
2023-02-05T23:49:09.151Z,76.79
2023-02-05T23:51:36.719Z,76.87
2023-02-05T23:54:03.757Z,76.94
2023-02-05T23:56:30.769Z,77.11
2023-02-05T23:58:57.656Z,77.28
